Time;durP1;ratioP1;P1;durP2;ratioP2;P2;SDS_P1;SDS_P2;PMS_P1;PMS_P2;Temp;Humidity;BMP_temperature;BMP_pressure;BME280_temperature;BME280_humidity;BME280_pressure;Samples;Min_cycle;Max_cycle;Signal;HPM_P1;HPM_P2
2021/08/02 00:01:56;;;;;;;10.35;6.28;;;;;;;16.65;88.63;99618.84;1698853;84;25842;-76
2021/08/02 00:04:28;;;;;;;6.05;4.45;;;;;;;16.67;88.54;99617.53;1651950;84;27491;-76
2021/08/02 00:07:00;;;;;;;9.10;5.53;;;;;;;16.71;88.55;99618.67;1724737;81;25816;-76
2021/08/02 00:09:40;;;;;;;5.58;4.72;;;;;;;16.75;88.45;99622.50;1722695;81;25789;-76
2021/08/02 00:12:17;;;;;;;7.33;5.03;;;;;;;16.79;88.38;99625.52;1674833;82;27006;-76
2021/08/02 00:14:46;;;;;;;8.50;5.15;;;;;;;16.79;88.27;99626.34;1695126;81;26045;-76
2021/08/02 00:17:13;;;;;;;8.23;4.47;;;;;;;16.81;88.34;99628.26;1719172;81;27462;-76
2021/08/02 00:19:41;;;;;;;7.30;4.53;;;;;;;16.81;88.12;99636.90;1737994;82;25803;-76
2021/08/02 00:22:08;;;;;;;8.73;4.90;;;;;;;16.81;88.22;99635.55;1670264;81;26453;-76
2021/08/02 00:24:35;;;;;;;8.43;4.70;;;;;;;16.80;88.07;99644.22;1693150;81;25789;-76
2021/08/02 00:27:03;;;;;;;5.95;4.10;;;;;;;16.79;88.05;99637.16;1760494;81;25890;-76
2021/08/02 00:29:31;;;;;;;4.67;4.08;;;;;;;16.77;87.91;99635.77;1737048;82;28144;-76
2021/08/02 00:32:01;;;;;;;5.50;3.95;;;;;;;16.77;87.91;99637.95;1686452;81;25837;-76
2021/08/02 00:34:28;;;;;;;6.15;4.65;;;;;;;16.78;87.93;99636.89;1723363;81;25823;-76
2021/08/02 00:37:05;;;;;;;4.62;3.98;;;;;;;16.82;87.88;99630.44;1753642;81;25855;-76
2021/08/02 00:39:43;;;;;;;4.62;3.77;;;;;;;16.84;87.85;99624.23;1754895;80;25291;-76
2021/08/02 00:42:32;;;;;;;6.53;4.25;;;;;;;16.84;87.68;99623.72;1714419;82;27555;-76
2021/08/02 00:45:19;;;;;;;7.90;5.10;;;;;;;16.83;87.72;99626.64;1717987;80;25873;-76
2021/08/02 00:48:06;;;;;;;7.55;5.90;;;;;;;16.79;87.64;99630.40;1748646;81;25764;-75
2021/08/02 00:50:38;;;;;;;5.37;4.83;;;;;;;16.77;87.89;99637.12;1750738;80;26452;-76
2021/08/02 00:53:10;;;;;;;7.80;4.65;;;;;;;16.75;87.96;99627.09;1703133;81;25784;-76
2021/08/02 00:55:41;;;;;;;6.15;5.25;;;;;;;16.76;87.92;99628.73;1678302;81;28136;-76
2021/08/02 00:58:13;;;;;;;7.65;4.28;;;;;;;16.73;87.92;99627.87;1713246;82;25865;-76
2021/08/02 01:00:44;;;;;;;7.03;4.67;;;;;;;16.71;88.22;99627.30;1726431;82;25883;-76
2021/08/02 01:03:13;;;;;;;7.08;4.65;;;;;;;16.64;88.11;99622.08;1703982;81;26516;-76
2021/08/02 01:05:45;;;;;;;4.90;4.40;;;;;;;16.59;88.36;99613.92;1715387;82;25861;-76
2021/08/02 01:08:16;;;;;;;9.58;5.03;;;;;;;16.53;88.29;99620.30;1752185;81;32542;-77
2021/08/02 01:10:47;;;;;;;5.47;4.97;;;;;;;16.49;88.68;99633.99;1744387;80;26035;-76
2021/08/02 01:13:17;;;;;;;7.40;5.12;;;;;;;16.49;88.79;99637.22;1674243;81;25864;-76
2021/08/02 01:15:50;;;;;;;6.15;5.00;;;;;;;16.53;88.79;99644.63;1684842;82;25722;-76
2021/08/02 01:18:20;;;;;;;7.45;5.87;;;;;;;16.53;88.75;99650.03;1750355;80;25765;-76
2021/08/02 01:20:50;;;;;;;9.03;5.33;;;;;;;16.54;88.86;99653.56;1757021;81;28281;-76
2021/08/02 01:23:19;;;;;;;;;;;;;;;16.53;88.92;99658.70;1674858;81;25311;-76
2021/08/02 01:25:51;;;;;;;5.83;5.25;;;;;;;16.49;89.20;99654.27;1699499;81;25803;-77
2021/08/02 01:28:26;;;;;;;5.67;4.87;;;;;;;16.47;89.19;99651.52;1747488;81;25812;-76
2021/08/02 01:30:58;;;;;;;7.42;5.12;;;;;;;16.46;89.31;99649.38;1749971;81;26440;-76
2021/08/02 01:33:30;;;;;;;5.95;4.67;;;;;;;16.46;89.24;99657.48;1698213;81;27531;-76
2021/08/02 01:36:03;;;;;;;5.70;4.83;;;;;;;16.44;89.35;99652.86;1689451;81;26446;-76
2021/08/02 01:38:33;;;;;;;7.15;4.97;;;;;;;16.42;89.54;99646.06;1756312;81;25826;-76
2021/08/02 01:41:03;;;;;;;6.17;4.87;;;;;;;16.38;89.44;99642.22;1719378;81;25930;-76
2021/08/02 01:43:32;;;;;;;9.15;6.30;;;;;;;16.37;89.48;99638.69;1716245;82;33611;-77
2021/08/02 01:46:23;;;;;;;6.50;4.75;;;;;;;16.38;89.53;99638.95;1694806;81;26959;-76
2021/08/02 01:49:09;;;;;;;5.87;5.28;;;;;;;16.39;89.70;99647.37;1752683;81;25875;-76
2021/08/02 01:51:46;;;;;;;7.17;5.30;;;;;;;16.43;89.65;99651.20;1717911;81;26251;-76
2021/08/02 01:54:46;;;;;;;7.55;5.42;;;;;;;16.47;89.60;99651.52;1739421;81;26576;-76
2021/08/02 01:57:19;;;;;;;8.33;5.60;;;;;;;16.46;89.48;99638.56;1698150;81;25819;-76
2021/08/02 02:00:03;;;;;;;7.83;5.83;;;;;;;16.50;89.58;99635.67;1756155;81;27686;-76
2021/08/02 02:02:34;;;;;;;8.10;5.33;;;;;;;16.52;89.34;99636.24;1750571;81;25760;-76
2021/08/02 02:05:16;;;;;;;6.60;5.35;;;;;;;16.51;89.21;99636.50;1722032;81;25854;-76
2021/08/02 02:07:54;;;;;;;5.67;4.75;;;;;;;16.49;89.28;99635.87;1712604;81;26251;-76
2021/08/02 02:10:26;;;;;;;8.98;5.33;;;;;;;16.46;89.43;99633.69;1737348;81;27099;-76
2021/08/02 02:12:54;;;;;;;;;;;;;;;16.43;89.34;99644.45;1737686;82;27463;-76
2021/08/02 02:15:21;;;;;;;6.50;5.10;;;;;;;16.43;89.58;99647.16;1700875;81;26142;-76
2021/08/02 02:17:49;;;;;;;6.65;4.87;;;;;;;16.36;89.60;99648.41;1694201;81;25875;-76
2021/08/02 02:20:20;;;;;;;6.35;5.12;;;;;;;16.33;89.62;99643.48;1709263;82;26558;-77
2021/08/02 02:22:47;;;;;;;6.47;5.05;;;;;;;16.31;89.67;99644.27;1724281;81;26490;-76
2021/08/02 02:25:15;;;;;;;7.95;6.85;;;;;;;16.34;89.67;99650.54;1696514;81;27603;-76
2021/08/02 02:27:43;;;;;;;6.67;4.97;;;;;;;16.33;89.63;99651.06;1712048;81;25766;-76
2021/08/02 02:30:12;;;;;;;5.95;5.37;;;;;;;16.35;89.69;99651.63;1715984;81;26652;-76
2021/08/02 02:32:42;;;;;;;12.28;6.25;;;;;;;16.35;89.60;99653.52;1713639;82;25912;-76
2021/08/02 02:35:11;;;;;;;;;;;;;;;16.35;89.60;99660.27;1724661;81;25716;-76
2021/08/02 02:37:39;;;;;;;6.65;5.10;;;;;;;16.36;89.76;99662.72;1720639;81;27551;-76
2021/08/02 02:40:08;;;;;;;8.65;5.92;;;;;;;16.37;89.79;99667.07;1691554;82;26285;-76
2021/08/02 02:42:36;;;;;;;9.60;5.37;;;;;;;16.37;89.81;99667.07;1695068;80;25806;-76
2021/08/02 02:45:06;;;;;;;7.85;5.85;;;;;;;16.36;89.83;99658.66;1705328;81;25989;-76
2021/08/02 02:47:35;;;;;;;9.35;5.95;;;;;;;16.38;89.79;99661.94;1712248;81;26013;-76
2021/08/02 02:50:05;;;;;;;9.28;5.75;;;;;;;16.39;89.88;99666.28;1738288;81;28176;-76
2021/08/02 02:52:33;;;;;;;10.20;5.97;;;;;;;16.39;89.99;99670.34;1691850;82;26797;-76
2021/08/02 02:55:01;;;;;;;8.75;5.92;;;;;;;16.38;90.11;99663.84;1742165;81;25860;-76
2021/08/02 02:57:29;;;;;;;7.37;5.33;;;;;;;16.36;90.05;99664.06;1713157;81;25939;-76
2021/08/02 02:59:58;;;;;;;10.68;6.87;;;;;;;16.34;90.02;99658.09;1737275;82;26467;-76
2021/08/02 03:02:28;;;;;;;7.58;5.87;;;;;;;16.34;89.98;99660.80;1696857;81;26992;-76
2021/08/02 03:04:57;;;;;;;8.78;6.42;;;;;;;16.31;90.13;99653.72;1719619;81;25321;-76
2021/08/02 03:07:31;;;;;;;11.60;6.22;;;;;;;16.33;90.18;99657.82;1719762;81;25752;-76
2021/08/02 03:10:00;;;;;;;8.60;7.45;;;;;;;16.33;90.26;99661.88;1750437;80;25782;-76
2021/08/02 03:12:30;;;;;;;11.95;7.80;;;;;;;16.34;90.34;99664.05;1689449;82;26295;-76
2021/08/02 03:14:56;;;;;;;11.60;7.15;;;;;;;16.33;90.38;99667.80;1723683;81;27572;-76
2021/08/02 03:17:23;;;;;;;10.63;6.75;;;;;;;16.31;90.39;99661.83;1719452;81;26705;-76
2021/08/02 03:19:51;;;;;;;10.08;7.20;;;;;;;16.29;90.43;99671.55;1743797;81;25792;-76
2021/08/02 03:22:42;;;;;;;10.75;7.30;;;;;;;16.29;90.62;99670.19;1677934;81;25782;-76
2021/08/02 03:25:29;;;;;;;9.15;7.83;;;;;;;16.30;90.71;99674.52;1724142;80;25523;-76
2021/08/02 03:28:02;;;;;;;10.55;7.65;;;;;;;16.30;90.66;99672.34;1706731;81;27457;-76
2021/08/02 03:30:30;;;;;;;10.38;7.30;;;;;;;16.32;90.80;99683.72;1745609;81;26261;-76
2021/08/02 03:33:01;;;;;;;12.68;8.75;;;;;;;16.33;90.77;99681.31;1726097;80;25867;-76
2021/08/02 03:35:30;;;;;;;9.10;7.70;;;;;;;16.33;90.87;99674.03;1719313;81;26649;-76
2021/08/02 03:37:58;;;;;;;14.90;8.68;;;;;;;16.33;90.83;99678.09;1722011;81;26651;-76
2021/08/02 03:40:25;;;;;;;11.03;8.45;;;;;;;16.35;90.84;99675.95;1751604;81;27550;-76
2021/08/02 03:42:53;;;;;;;14.85;9.48;;;;;;;16.36;90.83;99680.28;1676872;82;26263;-76
2021/08/02 03:45:21;;;;;;;14.35;9.65;;;;;;;16.39;90.97;99685.20;1717845;81;26560;-76
2021/08/02 03:47:48;;;;;;;13.48;8.73;;;;;;;16.41;90.87;99691.71;1718612;81;25940;-76
2021/08/02 03:50:15;;;;;;;10.13;8.83;;;;;;;16.41;91.07;99686.30;1752234;81;26472;-76
2021/08/02 03:52:42;;;;;;;13.38;9.80;;;;;;;16.40;90.94;99686.83;1695512;81;27342;-76
2021/08/02 03:55:12;;;;;;;13.55;9.73;;;;;;;16.39;91.07;99688.44;1722131;81;26071;-76
2021/08/02 03:57:39;;;;;;;13.18;9.25;;;;;;;16.38;91.11;99683.55;1718968;81;25832;-77
2021/08/02 04:00:07;;;;;;;15.58;9.88;;;;;;;16.42;91.28;99695.54;1759825;81;25812;-76
2021/08/02 04:02:35;;;;;;;15.53;10.82;;;;;;;16.42;91.26;99695.54;1772864;80;25854;-76
2021/08/02 04:05:03;;;;;;;13.15;10.25;;;;;;;16.42;91.36;99700.12;1685411;81;28288;-76
2021/08/02 04:07:30;;;;;;;15.13;10.45;;;;;;;16.44;91.42;99701.52;1745812;80;25809;-76
2021/08/02 04:09:57;;;;;;;15.28;10.78;;;;;;;16.48;91.41;99703.19;1749038;81;26370;-76
2021/08/02 04:12:24;;;;;;;13.48;10.35;;;;;;;16.50;91.60;99703.27;1704089;82;25881;-76
2021/08/02 04:14:51;;;;;;;17.32;11.12;;;;;;;16.50;91.66;99703.27;1712603;81;25977;-76
2021/08/02 04:17:18;;;;;;;15.53;10.98;;;;;;;16.52;91.50;99707.06;1718940;80;27564;-76
2021/08/02 04:19:46;;;;;;;13.53;10.78;;;;;;;16.53;91.62;99704.10;1734913;82;26506;-76
2021/08/02 04:22:13;;;;;;;12.13;9.85;;;;;;;16.57;91.63;99703.09;1689721;81;25784;-76
2021/08/02 04:24:40;;;;;;;11.85;10.35;;;;;;;16.58;91.80;99704.19;1675860;82;26537;-76
2021/08/02 04:27:07;;;;;;;12.33;9.88;;;;;;;16.57;91.59;99707.95;1746520;80;25956;-76
2021/08/02 04:29:34;;;;;;;14.47;10.90;;;;;;;16.59;91.71;99713.95;1758087;81;27513;-76
2021/08/02 04:32:01;;;;;;;17.07;11.50;;;;;;;16.60;91.74;99710.70;1678235;82;25801;-76
2021/08/02 04:34:28;;;;;;;12.30;10.88;;;;;;;16.61;91.55;99716.41;1742115;81;25881;-76
2021/08/02 04:36:55;;;;;;;17.60;11.70;;;;;;;16.63;91.56;99720.50;1729114;81;25903;-76
2021/08/02 04:39:22;;;;;;;13.32;10.55;;;;;;;16.65;91.51;99728.36;1729712;81;25949;-76
2021/08/02 04:41:49;;;;;;;12.55;10.78;;;;;;;16.66;91.57;99730.80;1676544;81;28154;-76
2021/08/02 04:44:16;;;;;;;17.35;12.03;;;;;;;16.67;91.76;99734.34;1706421;81;25823;-76
2021/08/02 04:46:43;;;;;;;15.68;11.53;;;;;;;16.65;91.84;99729.71;1717496;81;25836;-76
2021/08/02 04:49:10;;;;;;;14.05;11.75;;;;;;;16.66;92.02;99741.63;1756549;80;25789;-76
2021/08/02 04:51:37;;;;;;;16.00;12.40;;;;;;;16.67;91.75;99739.75;1702920;81;26788;-76
2021/08/02 04:54:04;;;;;;;17.60;12.88;;;;;;;16.70;91.89;99743.32;1715240;81;27545;-76
2021/08/02 04:56:31;;;;;;;14.15;12.50;;;;;;;16.72;91.93;99745.24;1702966;81;25805;-76
2021/08/02 04:58:58;;;;;;;18.12;14.10;;;;;;;16.68;91.61;99741.40;1756836;81;26187;-76
2021/08/02 05:01:25;;;;;;;20.80;14.15;;;;;;;16.63;91.57;99742.66;1702750;81;25803;-77
2021/08/02 05:03:52;;;;;;;16.90;14.13;;;;;;;16.62;91.82;99749.12;1699614;82;26599;-76
2021/08/02 05:06:19;;;;;;;22.35;16.85;;;;;;;16.63;91.98;99750.25;1692804;82;27660;-76
2021/08/02 05:08:46;;;;;;;17.57;15.00;;;;;;;16.69;92.09;99756.55;1756523;80;26222;-76
2021/08/02 05:11:13;;;;;;;19.02;16.12;;;;;;;16.73;92.13;99753.09;1695294;81;25582;-76
2021/08/02 05:13:40;;;;;;;19.32;15.80;;;;;;;16.79;92.03;99760.75;1709748;81;25938;-76
2021/08/02 05:16:07;;;;;;;17.60;14.70;;;;;;;16.83;91.85;99765.41;1713659;81;25975;-76
2021/08/02 05:18:35;;;;;;;17.87;15.72;;;;;;;16.86;91.80;99762.75;1764004;81;27505;-76
2021/08/02 05:21:02;;;;;;;19.77;15.65;;;;;;;16.90;91.73;99760.66;1681096;80;25981;-76
2021/08/02 05:23:29;;;;;;;20.50;14.83;;;;;;;16.94;91.60;99766.39;1707701;81;25993;-76
2021/08/02 05:25:56;;;;;;;17.25;15.35;;;;;;;16.99;91.53;99765.13;1719414;81;25823;-76
2021/08/02 05:28:23;;;;;;;20.12;17.00;;;;;;;17.01;91.25;99771.63;1757168;80;25955;-76
2021/08/02 05:30:50;;;;;;;20.62;16.48;;;;;;;17.03;91.14;99768.14;1671132;81;28243;-76
2021/08/02 05:33:17;;;;;;;19.67;15.83;;;;;;;17.04;91.05;99769.27;1690375;80;25820;-76
2021/08/02 05:35:44;;;;;;;17.62;15.68;;;;;;;17.08;91.14;99769.05;1725666;81;25673;-76
2021/08/02 05:38:11;;;;;;;17.77;14.43;;;;;;;17.12;91.14;99778.30;1756258;81;26445;-76
2021/08/02 05:40:38;;;;;;;18.67;15.50;;;;;;;17.13;91.28;99771.80;1705622;81;25805;-76
2021/08/02 05:43:05;;;;;;;19.55;15.10;;;;;;;17.15;91.07;99777.78;1701483;81;27628;-76
2021/08/02 05:45:32;;;;;;;21.55;15.45;;;;;;;17.19;91.06;99772.19;1688879;81;26892;-76
2021/08/02 05:47:59;;;;;;;19.00;16.50;;;;;;;17.19;90.70;99770.83;1698095;81;26453;-76
2021/08/02 05:50:27;;;;;;;20.12;16.67;;;;;;;17.20;90.91;99772.45;1754350;81;26917;-76
2021/08/02 05:52:54;;;;;;;22.35;16.10;;;;;;;17.21;90.94;99770.58;1711160;81;26518;-76
2021/08/02 05:55:22;;;;;;;24.27;16.50;;;;;;;17.23;90.82;99769.79;1711086;81;27630;-76
2021/08/02 05:57:49;;;;;;;20.23;18.02;;;;;;;17.21;90.80;99765.98;1683441;80;26013;-76
2021/08/02 06:00:16;;;;;;;18.98;15.93;;;;;;;17.21;91.04;99775.98;1726063;80;25399;-76
2021/08/02 06:02:43;;;;;;;19.50;16.20;;;;;;;17.23;91.16;99780.09;1680200;82;26360;-76
2021/08/02 06:05:10;;;;;;;16.57;14.83;;;;;;;17.19;90.99;99778.95;1737594;81;25548;-76
2021/08/02 06:07:41;;;;;;;17.73;15.72;;;;;;;17.15;91.27;99784.55;1700024;81;27446;-76
2021/08/02 06:10:09;;;;;;;20.43;16.35;;;;;;;17.13;91.38;99786.69;1749695;81;25785;-76
2021/08/02 06:12:35;;;;;;;22.20;17.60;;;;;;;17.17;91.53;99797.30;1700223;81;25931;-76
2021/08/02 06:15:03;;;;;;;26.70;18.80;;;;;;;17.22;91.57;99796.55;1706623;81;25900;-76
2021/08/02 06:17:30;;;;;;;26.10;20.40;;;;;;;17.22;91.57;99795.20;1696661;81;25771;-76
2021/08/02 06:19:57;;;;;;;26.65;19.65;;;;;;;17.26;91.60;99799.05;1726776;80;27459;-76
2021/08/02 06:22:24;;;;;;;27.60;18.23;;;;;;;17.32;91.83;99800.22;1701779;81;26602;-76
2021/08/02 06:24:51;;;;;;;26.57;18.82;;;;;;;17.37;91.49;99796.77;1696795;81;25754;-76
2021/08/02 06:27:18;;;;;;;27.45;20.05;;;;;;;17.42;91.62;99800.91;1699659;81;26611;-76
2021/08/02 06:29:45;;;;;;;26.45;18.67;;;;;;;17.47;91.65;99803.14;1757653;81;25900;-76
2021/08/02 06:32:12;;;;;;;22.48;18.48;;;;;;;17.53;91.65;99803.55;1701878;81;27660;-76
2021/08/02 06:34:39;;;;;;;23.70;19.48;;;;;;;17.59;91.41;99801.71;1720168;81;25868;-77
2021/08/02 06:37:06;;;;;;;22.85;17.85;;;;;;;17.65;91.19;99805.59;1699408;81;26653;-77
2021/08/02 06:39:34;;;;;;;24.20;18.62;;;;;;;17.67;91.27;99803.45;1754534;80;26031;-76
2021/08/02 06:42:01;;;;;;;22.10;17.77;;;;;;;17.68;90.92;99814.55;1696779;81;26142;-76
2021/08/02 06:44:28;;;;;;;20.82;16.55;;;;;;;17.69;90.81;99812.66;1703414;81;27620;-76
2021/08/02 06:46:55;;;;;;;20.70;16.25;;;;;;;17.67;90.69;99816.98;1696365;81;25840;-77
2021/08/02 06:49:21;;;;;;;21.35;16.95;;;;;;;17.66;90.07;99827.52;1753525;81;25810;-76
2021/08/02 06:51:48;;;;;;;22.00;17.10;;;;;;;17.62;90.10;99833.16;1703870;81;26496;-76
2021/08/02 06:54:16;;;;;;;22.15;17.45;;;;;;;17.65;90.30;99829.97;1705101;81;25864;-77
2021/08/02 06:56:43;;;;;;;22.32;17.25;;;;;;;17.64;89.93;99832.38;1698980;81;27418;-76
2021/08/02 06:59:10;;;;;;;22.22;17.40;;;;;;;17.62;89.91;99837.78;1720572;81;26034;-76
2021/08/02 07:01:37;;;;;;;20.17;16.95;;;;;;;17.61;89.99;99840.19;1719129;81;25823;-76
2021/08/02 07:04:04;;;;;;;21.35;17.87;;;;;;;17.65;90.00;99839.97;1700490;81;26253;-76
2021/08/02 07:06:31;;;;;;;25.17;18.35;;;;;;;17.69;90.25;99841.10;1703525;81;25799;-76
2021/08/02 07:08:59;;;;;;;21.02;17.07;;;;;;;17.71;90.07;99842.50;1760592;81;28107;-77
2021/08/02 07:11:26;;;;;;;20.32;17.15;;;;;;;17.74;89.95;99842.53;1696756;81;25892;-76
2021/08/02 07:13:54;;;;;;;21.50;16.37;;;;;;;17.75;89.90;99844.16;1720115;81;25900;-76
2021/08/02 07:16:22;;;;;;;18.45;15.65;;;;;;;17.79;89.81;99851.27;1704011;81;26359;-76
2021/08/02 07:18:51;;;;;;;22.30;17.05;;;;;;;17.85;90.07;99848.37;1752501;80;25921;-76
2021/08/02 07:21:21;;;;;;;21.93;17.80;;;;;;;17.93;90.17;99839.79;1718922;81;27727;-76
2021/08/02 07:23:49;;;;;;;18.27;16.30;;;;;;;17.95;89.20;99844.42;1702900;81;25810;-76
2021/08/02 07:26:16;;;;;;;17.90;16.10;;;;;;;17.96;89.49;99850.14;1756737;81;25553;-76
2021/08/02 07:28:43;;;;;;;18.40;16.05;;;;;;;18.01;89.44;99848.83;1757334;80;25898;-76
2021/08/02 07:31:10;;;;;;;17.17;15.40;;;;;;;18.06;89.20;99857.55;1709519;81;26518;-76
2021/08/02 07:33:39;;;;;;;17.75;13.75;;;;;;;18.08;89.09;99863.01;1728117;82;27559;-77
2021/08/02 07:36:07;;;;;;;18.85;15.45;;;;;;;18.10;89.02;99866.28;1742084;80;25723;-76
2021/08/02 07:38:38;;;;;;;16.02;14.03;;;;;;;18.07;88.37;99872.20;1760702;80;26071;-76
2021/08/02 07:41:05;;;;;;;16.07;13.95;;;;;;;18.06;88.48;99882.77;1698710;80;25778;-76
2021/08/02 07:43:32;;;;;;;19.52;14.80;;;;;;;18.09;88.65;99875.47;1719450;81;26712;-76
2021/08/02 07:45:59;;;;;;;18.60;14.98;;;;;;;18.15;88.81;99880.44;1702555;81;27293;-76
2021/08/02 07:48:26;;;;;;;16.50;14.80;;;;;;;18.22;88.86;99885.14;1719553;81;44044;-76
2021/08/02 07:50:53;;;;;;;16.12;14.18;;;;;;;18.27;88.57;99886.53;1755137;81;25300;-76
2021/08/02 07:53:21;;;;;;;16.97;14.87;;;;;;;18.34;88.12;99879.03;1680332;81;25952;-76
2021/08/02 07:55:48;;;;;;;19.48;15.23;;;;;;;18.39;88.25;99883.95;1725936;81;25797;-77
2021/08/02 07:58:16;;;;;;;16.48;13.93;;;;;;;18.48;87.92;99891.69;1759546;81;27540;-76
2021/08/02 08:00:43;;;;;;;16.67;14.98;;;;;;;18.53;87.97;99883.06;1727319;82;26447;-76
2021/08/02 08:03:12;;;;;;;17.35;15.05;;;;;;;18.62;87.88;99892.91;1679413;82;25749;-76
2021/08/02 08:05:39;;;;;;;17.92;14.68;;;;;;;18.69;87.55;99894.89;1700711;81;26084;-76
2021/08/02 08:08:06;;;;;;;16.50;14.80;;;;;;;18.71;86.94;99894.89;1749514;80;26382;-76
2021/08/02 08:10:33;;;;;;;16.52;14.83;;;;;;;18.71;86.71;99900.88;1716009;81;27578;-76
2021/08/02 08:13:00;;;;;;;16.17;14.38;;;;;;;18.73;86.92;99902.27;1680303;81;25814;-77
2021/08/02 08:15:27;;;;;;;14.83;13.32;;;;;;;18.76;86.22;99896.84;1688255;81;25917;-76
2021/08/02 08:17:55;;;;;;;14.87;13.03;;;;;;;18.76;86.24;99896.30;1750395;81;25767;-77
2021/08/02 08:20:24;;;;;;;14.43;12.53;;;;;;;18.82;86.62;99895.84;1745167;80;25768;-76
2021/08/02 08:22:53;;;;;;;17.07;13.58;;;;;;;18.89;85.88;99897.25;1700388;82;27625;-76
2021/08/02 08:25:20;;;;;;;14.30;12.10;;;;;;;18.93;85.09;99900.25;1686870;82;25818;-76
2021/08/02 08:27:47;;;;;;;14.38;12.20;;;;;;;18.98;85.53;99895.70;1751685;81;25835;-76
2021/08/02 08:30:14;;;;;;;12.73;11.50;;;;;;;19.07;85.78;99900.95;1746722;81;26241;-76
2021/08/02 08:32:41;;;;;;;12.95;11.65;;;;;;;19.15;85.25;99901.00;1674600;81;25586;-76
2021/08/02 08:35:10;;;;;;;11.80;10.70;;;;;;;19.18;84.69;99901.84;1675621;81;27530;-76
2021/08/02 08:37:39;;;;;;;13.13;11.83;;;;;;;19.25;84.77;99910.04;1716103;81;25860;-76
2021/08/02 08:40:09;;;;;;;13.90;12.47;;;;;;;19.31;84.57;99905.45;1751877;81;25901;-76
2021/08/02 08:42:41;;;;;;;12.60;10.45;;;;;;;19.34;83.52;99902.26;1722604;81;25793;-76
2021/08/02 08:45:10;;;;;;;14.65;10.80;;;;;;;19.36;83.86;99906.89;1695875;81;25816;-77
2021/08/02 08:47:37;;;;;;;17.07;12.73;;;;;;;19.38;82.98;99907.45;1755973;80;28070;-77
2021/08/02 08:50:07;;;;;;;14.33;11.20;;;;;;;19.37;83.72;99911.79;1756307;81;26972;-76
2021/08/02 08:52:39;;;;;;;14.95;10.48;;;;;;;19.39;83.46;99909.63;1696027;81;25878;-76
2021/08/02 08:55:10;;;;;;;12.68;10.65;;;;;;;19.43;82.80;99908.85;1728905;80;25999;-76
2021/08/02 08:57:37;;;;;;;12.88;10.78;;;;;;;19.47;83.02;99916.75;1752280;81;25864;-77
2021/08/02 09:00:07;;;;;;;13.88;11.88;;;;;;;19.57;82.48;99913.27;1755945;81;27564;-76
2021/08/02 09:02:34;;;;;;;14.70;11.03;;;;;;;19.63;82.50;99913.61;1679803;81;25869;-77
2021/08/02 09:05:02;;;;;;;11.25;10.13;;;;;;;19.73;83.19;99910.94;1725148;82;25897;-76
2021/08/02 09:07:39;;;;;;;11.18;10.05;;;;;;;19.83;82.65;99920.50;1752847;80;25838;-77
2021/08/02 09:10:12;;;;;;;12.05;10.48;;;;;;;19.95;82.76;99917.84;1758695;81;25760;-77
2021/08/02 09:13:00;;;;;;;10.72;9.58;;;;;;;20.12;81.56;99920.94;1698407;81;28349;-76
2021/08/02 09:15:39;;;;;;;9.48;8.33;;;;;;;20.17;81.49;99929.09;1719155;81;25953;-76
2021/08/02 09:18:10;;;;;;;8.25;7.37;;;;;;;20.24;80.67;99925.63;1693240;81;25927;-77
2021/08/02 09:20:40;;;;;;;9.58;7.70;;;;;;;20.29;79.51;99925.13;1737558;82;25907;-76
2021/08/02 09:23:14;;;;;;;12.37;8.70;;;;;;;20.31;78.55;99935.73;1731785;81;25576;-77
2021/08/02 09:25:51;;;;;;;8.25;7.10;;;;;;;20.28;78.85;99930.81;1689138;82;27468;-77
2021/08/02 09:28:22;;;;;;;6.47;5.85;;;;;;;20.25;77.67;99941.67;1716741;81;25989;-76
2021/08/02 09:31:05;;;;;;;7.33;6.62;;;;;;;20.21;77.93;99941.94;1772211;79;25725;-76
2021/08/02 09:33:45;;;;;;;7.62;6.78;;;;;;;20.23;78.27;99945.20;1754270;81;26004;-76
2021/08/02 09:36:17;;;;;;;10.15;7.30;;;;;;;20.34;78.75;99949.61;1687602;81;25788;-77
2021/08/02 09:38:44;;;;;;;8.73;6.90;;;;;;;20.46;77.79;99939.87;1704209;81;28191;-77
2021/08/02 09:41:22;;;;;;;7.80;7.00;;;;;;;20.53;76.66;99947.25;1768693;80;25897;-77
2021/08/02 09:43:52;;;;;;;8.05;6.87;;;;;;;20.53;76.56;99951.33;1713046;81;26435;-77
2021/08/02 09:46:20;;;;;;;9.05;6.58;;;;;;;20.54;77.18;99957.85;1715345;81;26438;-77
2021/08/02 09:48:48;;;;;;;11.70;7.80;;;;;;;20.58;77.04;99954.05;1692400;82;26530;-76
2021/08/02 09:51:18;;;;;;;8.68;7.00;;;;;;;20.61;76.67;99965.23;1732185;81;27457;-77
2021/08/02 09:53:48;;;;;;;8.43;7.20;;;;;;;20.66;77.02;99965.23;1728879;81;26966;-77
2021/08/02 09:56:19;;;;;;;9.60;6.15;;;;;;;20.71;75.92;99965.80;1687234;81;25857;-77
2021/08/02 09:58:47;;;;;;;7.72;6.83;;;;;;;20.73;76.45;99975.86;1746059;81;26361;-77
2021/08/02 10:01:18;;;;;;;7.33;6.53;;;;;;;20.78;75.78;99976.69;1737256;82;25935;-76
2021/08/02 10:03:46;;;;;;;;;;;;;;;20.82;75.63;99980.24;1701080;82;27167;-77
2021/08/02 10:06:15;;;;;;;6.95;5.55;;;;;;;20.81;73.90;99979.98;1781345;79;25868;-76
2021/08/02 10:08:43;;;;;;;7.03;5.42;;;;;;;20.76;74.86;99988.95;1677924;82;25872;-77
2021/08/02 10:11:10;;;;;;;12.23;7.80;;;;;;;20.73;73.54;99980.77;1770750;80;26017;-77
2021/08/02 10:13:43;;;;;;;6.03;5.22;;;;;;;20.71;73.83;99991.11;1682607;81;26569;-77
2021/08/02 10:16:16;;;;;;;5.15;4.50;;;;;;;20.78;74.07;99984.59;1747483;80;28091;-76
2021/08/02 10:18:51;;;;;;;5.45;4.45;;;;;;;20.89;73.40;99988.45;1720783;81;26525;-76
2021/08/02 10:21:20;;;;;;;5.37;4.87;;;;;;;20.95;73.12;99986.00;1737647;81;25947;-77
2021/08/02 10:23:47;;;;;;;9.80;5.97;;;;;;;21.07;73.19;99990.67;1670088;80;26360;-77
2021/08/02 10:26:29;;;;;;;4.50;3.83;;;;;;;21.19;73.43;99990.44;1724510;81;26174;-77
2021/08/02 10:29:00;;;;;;;9.00;4.60;;;;;;;21.27;70.42;99995.34;1717832;82;27574;-77
2021/08/02 10:31:28;;;;;;;5.37;4.87;;;;;;;21.21;70.17;99991.77;1743690;81;26421;-77
2021/08/02 10:33:55;;;;;;;6.80;5.70;;;;;;;21.22;70.09;99993.96;1690134;82;25856;-77
2021/08/02 10:36:24;;;;;;;5.10;4.60;;;;;;;21.23;70.85;99988.27;1699761;81;26444;-77
2021/08/02 10:38:53;;;;;;;4.65;4.10;;;;;;;21.30;71.51;99984.70;1775596;80;25904;-77
2021/08/02 10:41:32;;;;;;;6.33;4.65;;;;;;;21.41;70.18;99986.34;1728657;82;27474;-77
2021/08/02 10:44:12;;;;;;;5.85;4.33;;;;;;;21.51;69.98;99990.43;1710752;80;25806;-76
2021/08/02 10:46:39;;;;;;;5.90;4.40;;;;;;;21.61;69.59;99996.98;1702178;82;25780;-77
2021/08/02 10:49:15;;;;;;;6.67;3.47;;;;;;;21.66;69.19;100000.53;1732225;80;25941;-77
2021/08/02 10:51:52;;;;;;;7.60;4.00;;;;;;;21.75;68.19;100000.80;1733110;82;25852;-77
2021/08/02 10:54:19;;;;;;;8.20;3.60;;;;;;;21.77;68.35;99998.62;1706193;80;28189;-77
2021/08/02 10:56:50;;;;;;;3.75;3.37;;;;;;;21.72;67.52;99997.25;1713295;81;25825;-77
2021/08/02 10:59:18;;;;;;;3.10;2.85;;;;;;;21.63;65.21;99996.16;1715398;82;26512;-77
2021/08/02 11:01:53;;;;;;;4.97;2.77;;;;;;;21.50;65.33;100008.42;1749003;80;25847;-77
2021/08/02 11:04:23;;;;;;;3.70;2.70;;;;;;;21.53;66.15;100000.25;1699549;81;26045;-77
2021/08/02 11:06:54;;;;;;;5.62;3.27;;;;;;;21.60;67.05;99999.45;1713894;81;27462;-77
2021/08/02 11:09:31;;;;;;;6.05;4.37;;;;;;;21.62;66.13;99998.05;1699621;81;25367;-77
2021/08/02 11:12:13;;;;;;;5.20;3.02;;;;;;;21.65;66.31;99996.70;1738190;82;26502;-77
2021/08/02 11:14:55;;;;;;;4.42;2.60;;;;;;;21.73;65.15;100002.95;1676022;81;26241;-77
2021/08/02 11:17:29;;;;;;;3.55;2.75;;;;;;;21.83;66.71;100001.09;1755144;81;26384;-77
2021/08/02 11:20:05;;;;;;;4.70;2.27;;;;;;;21.94;62.85;99997.80;1723588;81;27563;-77
2021/08/02 11:22:32;;;;;;;2.98;2.30;;;;;;;21.98;63.78;100003.77;1736145;82;26517;-77
2021/08/02 11:25:01;;;;;;;2.22;1.90;;;;;;;22.02;63.48;100013.06;1697990;81;25871;-77
2021/08/02 11:27:28;;;;;;;3.92;2.30;;;;;;;22.07;61.96;100014.94;1719036;81;25918;-76
2021/08/02 11:29:55;;;;;;;3.45;2.10;;;;;;;22.07;62.43;100022.58;1719981;81;25963;-77
2021/08/02 11:32:23;;;;;;;2.65;2.17;;;;;;;22.10;61.46;100017.95;1747614;81;27550;-77
2021/08/02 11:34:55;;;;;;;3.30;1.98;;;;;;;22.17;60.69;100011.67;1689604;82;25889;-77
2021/08/02 11:37:26;;;;;;;2.90;2.27;;;;;;;22.24;61.22;100017.63;1714047;80;25839;-77
2021/08/02 11:40:04;;;;;;;3.60;1.87;;;;;;;22.34;61.37;100020.89;1726864;81;26436;-77